sensor_id;sensor_type;location;lat;lon;timestamp;pressure;altitude;pressure_sealevel;temperature;humidity
7178;BME280;3630;42.146;24.756;2022-07-18T00:02:03;99940.97;;;24.97;33.73
7178;BME280;3630;42.146;24.756;2022-07-18T00:04:30;99943.84;;;24.91;33.48
7178;BME280;3630;42.146;24.756;2022-07-18T00:06:58;99950.78;;;24.92;34.02
7178;BME280;3630;42.146;24.756;2022-07-18T00:09:25;99949.94;;;24.92;33.20
7178;BME280;3630;42.146;24.756;2022-07-18T00:11:53;99950.97;;;24.88;33.65
7178;BME280;3630;42.146;24.756;2022-07-18T00:14:20;99948.44;;;24.85;33.32
7178;BME280;3630;42.146;24.756;2022-07-18T00:16:47;99957.31;;;24.81;33.13
7178;BME280;3630;42.146;24.756;2022-07-18T00:19:15;99956.66;;;24.74;32.68
7178;BME280;3630;42.146;24.756;2022-07-18T00:21:42;99959.22;;;24.76;32.50
7178;BME280;3630;42.146;24.756;2022-07-18T00:24:11;99955.03;;;24.70;33.15
7178;BME280;3630;42.146;24.756;2022-07-18T00:26:38;99954.34;;;24.65;32.75
7178;BME280;3630;42.146;24.756;2022-07-18T00:29:04;99969.25;;;24.64;31.86
7178;BME280;3630;42.146;24.756;2022-07-18T00:31:32;99963.25;;;24.61;32.56
7178;BME280;3630;42.146;24.756;2022-07-18T00:33:59;99951.22;;;24.54;31.90
7178;BME280;3630;42.146;24.756;2022-07-18T00:36:28;99957.50;;;24.50;31.85
7178;BME280;3630;42.146;24.756;2022-07-18T00:38:55;99955.09;;;24.42;31.63
7178;BME280;3630;42.146;24.756;2022-07-18T00:41:24;99953.41;;;24.41;31.10
7178;BME280;3630;42.146;24.756;2022-07-18T00:43:51;99957.63;;;24.45;31.05
7178;BME280;3630;42.146;24.756;2022-07-18T00:46:21;99967.69;;;24.33;30.52
7178;BME280;3630;42.146;24.756;2022-07-18T00:48:48;99955.13;;;24.15;30.21
7178;BME280;3630;42.146;24.756;2022-07-18T00:51:15;99962.88;;;24.19;29.96
7178;BME280;3630;42.146;24.756;2022-07-18T00:53:43;99947.53;;;24.04;30.67
7178;BME280;3630;42.146;24.756;2022-07-18T00:56:11;99967.69;;;24.03;30.58
7178;BME280;3630;42.146;24.756;2022-07-18T00:58:40;99967.69;;;24.03;30.68
7178;BME280;3630;42.146;24.756;2022-07-18T01:01:08;99968.44;;;24.08;30.86
7178;BME280;3630;42.146;24.756;2022-07-18T01:03:49;99964.25;;;24.01;30.53
7178;BME280;3630;42.146;24.756;2022-07-18T01:06:16;99975.91;;;23.93;30.32
7178;BME280;3630;42.146;24.756;2022-07-18T01:08:43;99971.50;;;23.93;30.32
7178;BME280;3630;42.146;24.756;2022-07-18T01:11:10;99964.94;;;23.79;29.61
7178;BME280;3630;42.146;24.756;2022-07-18T01:13:37;99981.53;;;23.81;29.69
7178;BME280;3630;42.146;24.756;2022-07-18T01:16:06;99984.38;;;23.73;29.57
7178;BME280;3630;42.146;24.756;2022-07-18T01:18:34;99972.34;;;23.66;29.82
7178;BME280;3630;42.146;24.756;2022-07-18T01:21:02;99976.94;;;23.58;30.67
7178;BME280;3630;42.146;24.756;2022-07-18T01:23:29;99974.28;;;23.60;30.64
7178;BME280;3630;42.146;24.756;2022-07-18T01:25:56;99984.00;;;23.56;30.77
7178;BME280;3630;42.146;24.756;2022-07-18T01:28:22;99985.63;;;23.60;30.62
7178;BME280;3630;42.146;24.756;2022-07-18T01:30:49;99976.94;;;23.58;30.77
7178;BME280;3630;42.146;24.756;2022-07-18T01:33:16;99980.59;;;23.53;31.17
7178;BME280;3630;42.146;24.756;2022-07-18T01:35:43;99983.38;;;23.48;31.20
7178;BME280;3630;42.146;24.756;2022-07-18T01:38:11;99981.72;;;23.44;30.92
7178;BME280;3630;42.146;24.756;2022-07-18T01:40:39;99981.81;;;23.41;31.44
7178;BME280;3630;42.146;24.756;2022-07-18T01:43:06;99980.19;;;23.35;31.05
7178;BME280;3630;42.146;24.756;2022-07-18T01:45:33;99977.50;;;23.38;31.25
7178;BME280;3630;42.146;24.756;2022-07-18T01:48:00;99992.31;;;23.41;31.57
7178;BME280;3630;42.146;24.756;2022-07-18T01:50:26;99981.81;;;23.41;31.82
7178;BME280;3630;42.146;24.756;2022-07-18T01:52:54;99981.00;;;23.39;32.15
7178;BME280;3630;42.146;24.756;2022-07-18T01:55:22;99985.50;;;23.34;32.35
7178;BME280;3630;42.146;24.756;2022-07-18T01:57:49;99983.91;;;23.27;33.06
7178;BME280;3630;42.146;24.756;2022-07-18T02:00:16;99983.31;;;23.17;32.99
7178;BME280;3630;42.146;24.756;2022-07-18T02:02:43;99988.00;;;23.05;33.04
7178;BME280;3630;42.146;24.756;2022-07-18T02:05:09;99983.69;;;23.04;33.19
7178;BME280;3630;42.146;24.756;2022-07-18T02:07:41;99986.19;;;23.08;32.87
7178;BME280;3630;42.146;24.756;2022-07-18T02:10:10;99991.47;;;23.07;33.07
7178;BME280;3630;42.146;24.756;2022-07-18T02:12:39;99982.91;;;23.00;33.49
7178;BME280;3630;42.146;24.756;2022-07-18T02:15:08;99987.13;;;23.06;33.22
7178;BME280;3630;42.146;24.756;2022-07-18T02:17:35;99987.47;;;22.94;33.43
7178;BME280;3630;42.146;24.756;2022-07-18T02:20:03;99989.97;;;22.97;33.83
7178;BME280;3630;42.146;24.756;2022-07-18T02:22:30;99997.97;;;22.92;34.07
7178;BME280;3630;42.146;24.756;2022-07-18T02:24:57;100000.72;;;22.87;34.38
7178;BME280;3630;42.146;24.756;2022-07-18T02:27:24;100007.06;;;22.79;35.00
7178;BME280;3630;42.146;24.756;2022-07-18T02:29:52;100008.06;;;22.73;35.31
7178;BME280;3630;42.146;24.756;2022-07-18T02:32:19;100005.38;;;22.76;35.62
7178;BME280;3630;42.146;24.756;2022-07-18T02:34:48;100011.66;;;22.69;36.17
7178;BME280;3630;42.146;24.756;2022-07-18T02:37:15;100004.63;;;22.71;35.50
7178;BME280;3630;42.146;24.756;2022-07-18T02:39:43;100003.03;;;22.64;35.54
7178;BME280;3630;42.146;24.756;2022-07-18T02:42:10;100006.53;;;22.65;35.37
7178;BME280;3630;42.146;24.756;2022-07-18T02:44:36;100014.44;;;22.63;35.18
7178;BME280;3630;42.146;24.756;2022-07-18T02:47:05;99997.28;;;22.49;35.68
7178;BME280;3630;42.146;24.756;2022-07-18T02:49:32;100018.94;;;22.55;35.77
7178;BME280;3630;42.146;24.756;2022-07-18T02:52:00;100024.19;;;22.55;35.75
7178;BME280;3630;42.146;24.756;2022-07-18T02:54:28;99994.09;;;22.36;36.02
7178;BME280;3630;42.146;24.756;2022-07-18T02:56:55;100021.69;;;22.51;36.25
7178;BME280;3630;42.146;24.756;2022-07-18T02:59:22;100008.72;;;22.45;35.60
7178;BME280;3630;42.146;24.756;2022-07-18T03:01:49;100010.50;;;22.44;36.01
7178;BME280;3630;42.146;24.756;2022-07-18T03:04:17;100008.91;;;22.37;36.02
7178;BME280;3630;42.146;24.756;2022-07-18T03:06:45;100011.41;;;22.43;35.69
7178;BME280;3630;42.146;24.756;2022-07-18T03:09:13;99997.69;;;22.32;36.06
7178;BME280;3630;42.146;24.756;2022-07-18T03:11:40;100011.47;;;22.40;35.78
7178;BME280;3630;42.146;24.756;2022-07-18T03:14:07;100013.03;;;22.47;35.37
7178;BME280;3630;42.146;24.756;2022-07-18T03:16:34;100011.94;;;22.56;35.60
7178;BME280;3630;42.146;24.756;2022-07-18T03:19:02;100015.28;;;22.64;35.13
7178;BME280;3630;42.146;24.756;2022-07-18T03:21:30;100017.81;;;22.67;35.20
7178;BME280;3630;42.146;24.756;2022-07-18T03:23:57;100021.03;;;22.79;34.72
7178;BME280;3630;42.146;24.756;2022-07-18T03:26:24;100015.66;;;22.84;34.82
7178;BME280;3630;42.146;24.756;2022-07-18T03:28:51;100010.94;;;22.97;34.30
7178;BME280;3630;42.146;24.756;2022-07-18T03:31:17;100021.06;;;23.10;33.54
7178;BME280;3630;42.146;24.756;2022-07-18T03:33:44;100024.28;;;23.21;33.21
7178;BME280;3630;42.146;24.756;2022-07-18T03:36:11;100020.91;;;23.16;33.13
7178;BME280;3630;42.146;24.756;2022-07-18T03:38:39;100016.47;;;23.20;33.00
7178;BME280;3630;42.146;24.756;2022-07-18T03:41:08;100025.97;;;23.24;32.72
7178;BME280;3630;42.146;24.756;2022-07-18T03:43:35;100030.22;;;23.28;32.72
7178;BME280;3630;42.146;24.756;2022-07-18T03:46:03;100025.13;;;23.22;32.36
7178;BME280;3630;42.146;24.756;2022-07-18T03:48:29;100021.72;;;23.20;32.23
7178;BME280;3630;42.146;24.756;2022-07-18T03:50:56;100032.13;;;23.23;32.49
7178;BME280;3630;42.146;24.756;2022-07-18T03:53:23;100033.88;;;23.22;31.93
7178;BME280;3630;42.146;24.756;2022-07-18T03:55:52;100027.59;;;23.28;31.90
7178;BME280;3630;42.146;24.756;2022-07-18T03:58:18;100034.50;;;23.32;31.72
7178;BME280;3630;42.146;24.756;2022-07-18T04:00:45;100036.13;;;23.37;31.60
7178;BME280;3630;42.146;24.756;2022-07-18T04:03:12;100037.16;;;23.30;31.65
7178;BME280;3630;42.146;24.756;2022-07-18T04:05:39;100044.69;;;23.44;31.43
7178;BME280;3630;42.146;24.756;2022-07-18T04:08:06;100049.25;;;23.37;31.37
7178;BME280;3630;42.146;24.756;2022-07-18T04:10:33;100051.28;;;23.25;31.59
7178;BME280;3630;42.146;24.756;2022-07-18T04:13:01;100045.31;;;23.20;31.72
7178;BME280;3630;42.146;24.756;2022-07-18T04:15:29;100046.03;;;23.25;31.59
7178;BME280;3630;42.146;24.756;2022-07-18T04:17:56;100046.09;;;23.23;31.30
7178;BME280;3630;42.146;24.756;2022-07-18T04:20:24;100045.22;;;23.23;31.67
7178;BME280;3630;42.146;24.756;2022-07-18T04:22:53;100041.88;;;23.18;31.41
7178;BME280;3630;42.146;24.756;2022-07-18T04:25:22;100042.41;;;23.30;31.22
7178;BME280;3630;42.146;24.756;2022-07-18T04:27:50;100051.88;;;23.37;31.47
7178;BME280;3630;42.146;24.756;2022-07-18T04:30:20;100044.00;;;23.37;31.29
7178;BME280;3630;42.146;24.756;2022-07-18T04:32:47;100048.22;;;23.43;30.88
7178;BME280;3630;42.146;24.756;2022-07-18T04:35:14;100056.13;;;23.41;30.26
7178;BME280;3630;42.146;24.756;2022-07-18T04:37:41;100050.00;;;23.41;30.54
7178;BME280;3630;42.146;24.756;2022-07-18T04:40:09;100059.44;;;23.48;30.39
7178;BME280;3630;42.146;24.756;2022-07-18T04:42:37;100062.72;;;23.56;30.95
7178;BME280;3630;42.146;24.756;2022-07-18T04:45:05;100067.66;;;23.67;30.31
7178;BME280;3630;42.146;24.756;2022-07-18T04:47:34;100073.50;;;23.76;30.06
7178;BME280;3630;42.146;24.756;2022-07-18T04:50:01;100074.25;;;23.81;30.35
7178;BME280;3630;42.146;24.756;2022-07-18T04:52:35;100079.28;;;23.89;29.96
7178;BME280;3630;42.146;24.756;2022-07-18T04:55:02;100080.34;;;23.82;30.32
7178;BME280;3630;42.146;24.756;2022-07-18T04:57:29;100083.59;;;23.90;29.91
7178;BME280;3630;42.146;24.756;2022-07-18T04:59:56;100087.00;;;23.93;29.88
7178;BME280;3630;42.146;24.756;2022-07-18T05:02:23;100097.66;;;23.89;30.41
7178;BME280;3630;42.146;24.756;2022-07-18T05:04:51;100085.47;;;23.86;30.40
7178;BME280;3630;42.146;24.756;2022-07-18T05:07:18;100096.78;;;23.88;30.31
7178;BME280;3630;42.146;24.756;2022-07-18T05:09:44;100102.94;;;23.87;31.09
7178;BME280;3630;42.146;24.756;2022-07-18T05:12:11;100094.97;;;23.90;30.19
7178;BME280;3630;42.146;24.756;2022-07-18T05:14:38;100102.69;;;23.96;30.48
7178;BME280;3630;42.146;24.756;2022-07-18T05:17:05;100107.91;;;23.98;30.17
7178;BME280;3630;42.146;24.756;2022-07-18T05:19:32;100095.63;;;23.98;30.15
7178;BME280;3630;42.146;24.756;2022-07-18T05:22:00;100105.94;;;24.04;30.37
7178;BME280;3630;42.146;24.756;2022-07-18T05:24:27;100106.72;;;24.08;29.90
7178;BME280;3630;42.146;24.756;2022-07-18T05:26:53;100107.72;;;24.04;30.20
7178;BME280;3630;42.146;24.756;2022-07-18T05:29:20;100113.81;;;24.06;30.13
7178;BME280;3630;42.146;24.756;2022-07-18T05:31:47;100107.69;;;24.05;30.04
7178;BME280;3630;42.146;24.756;2022-07-18T05:34:14;100106.50;;;24.17;30.33
7178;BME280;3630;42.146;24.756;2022-07-18T05:36:41;100095.84;;;24.22;30.43
7178;BME280;3630;42.146;24.756;2022-07-18T05:39:09;100096.47;;;24.30;30.21
7178;BME280;3630;42.146;24.756;2022-07-18T05:41:36;100105.00;;;24.38;30.08
7178;BME280;3630;42.146;24.756;2022-07-18T05:44:03;100103.16;;;24.40;30.74
7178;BME280;3630;42.146;24.756;2022-07-18T05:46:30;100099.56;;;24.44;30.61
7178;BME280;3630;42.146;24.756;2022-07-18T05:48:57;100101.94;;;24.51;30.53
7178;BME280;3630;42.146;24.756;2022-07-18T05:51:24;100096.34;;;24.62;30.54
7178;BME280;3630;42.146;24.756;2022-07-18T05:53:50;100090.56;;;24.51;30.51
7178;BME280;3630;42.146;24.756;2022-07-18T05:56:18;100093.91;;;24.56;30.71
7178;BME280;3630;42.146;24.756;2022-07-18T05:58:45;100092.81;;;24.63;30.51
7178;BME280;3630;42.146;24.756;2022-07-18T06:01:12;100092.06;;;24.59;30.05
7178;BME280;3630;42.146;24.756;2022-07-18T06:03:42;100076.28;;;24.59;30.29
7178;BME280;3630;42.146;24.756;2022-07-18T06:06:09;100083.91;;;24.67;30.19
7178;BME280;3630;42.146;24.756;2022-07-18T06:08:36;100067.09;;;24.73;30.53
7178;BME280;3630;42.146;24.756;2022-07-18T06:11:03;100076.56;;;24.78;30.40
7178;BME280;3630;42.146;24.756;2022-07-18T06:13:33;100078.13;;;24.85;30.33
7178;BME280;3630;42.146;24.756;2022-07-18T06:16:00;100079.19;;;24.78;30.57
7178;BME280;3630;42.146;24.756;2022-07-18T06:18:27;100086.91;;;24.84;30.17
7178;BME280;3630;42.146;24.756;2022-07-18T06:20:54;100086.00;;;24.85;30.55
7178;BME280;3630;42.146;24.756;2022-07-18T06:23:21;100075.16;;;24.94;30.47
7178;BME280;3630;42.146;24.756;2022-07-18T06:25:48;100075.59;;;24.82;30.54
7178;BME280;3630;42.146;24.756;2022-07-18T06:28:15;100078.31;;;24.79;30.96
7178;BME280;3630;42.146;24.756;2022-07-18T06:30:43;100085.31;;;24.80;30.65
7178;BME280;3630;42.146;24.756;2022-07-18T06:33:10;100080.88;;;24.81;30.86
7178;BME280;3630;42.146;24.756;2022-07-18T06:35:39;100054.81;;;24.73;30.37
7178;BME280;3630;42.146;24.756;2022-07-18T06:38:06;100087.50;;;24.92;30.56
7178;BME280;3630;42.146;24.756;2022-07-18T06:40:33;100081.25;;;24.96;30.43
7178;BME280;3630;42.146;24.756;2022-07-18T06:43:00;100085.97;;;25.13;30.20
7178;BME280;3630;42.146;24.756;2022-07-18T06:45:27;100079.53;;;25.21;29.79
7178;BME280;3630;42.146;24.756;2022-07-18T06:47:55;100083.72;;;25.27;29.69
7178;BME280;3630;42.146;24.756;2022-07-18T06:50:22;100085.53;;;25.25;29.46
7178;BME280;3630;42.146;24.756;2022-07-18T06:52:49;100085.25;;;25.33;29.79
7178;BME280;3630;42.146;24.756;2022-07-18T06:55:16;100092.94;;;25.39;29.32
7178;BME280;3630;42.146;24.756;2022-07-18T06:57:43;100062.13;;;25.42;29.83
7178;BME280;3630;42.146;24.756;2022-07-18T07:00:11;100085.56;;;25.74;29.54
7178;BME280;3630;42.146;24.756;2022-07-18T07:02:43;100082.59;;;25.84;28.91
7178;BME280;3630;42.146;24.756;2022-07-18T07:05:12;100087.69;;;25.88;28.39
7178;BME280;3630;42.146;24.756;2022-07-18T07:07:39;100096.25;;;25.95;28.72
7178;BME280;3630;42.146;24.756;2022-07-18T07:10:06;100087.53;;;25.93;27.78
7178;BME280;3630;42.146;24.756;2022-07-18T07:12:38;100082.38;;;25.90;27.89
7178;BME280;3630;42.146;24.756;2022-07-18T07:15:06;100085.63;;;25.96;28.29
7178;BME280;3630;42.146;24.756;2022-07-18T07:17:34;100082.44;;;26.11;27.90
7178;BME280;3630;42.146;24.756;2022-07-18T07:20:02;100074.16;;;26.22;27.60
7178;BME280;3630;42.146;24.756;2022-07-18T07:22:30;100077.78;;;26.19;27.69
7178;BME280;3630;42.146;24.756;2022-07-18T07:24:57;100075.94;;;26.21;27.33
7178;BME280;3630;42.146;24.756;2022-07-18T07:27:24;100075.06;;;26.21;28.55
7178;BME280;3630;42.146;24.756;2022-07-18T07:29:51;100078.91;;;26.35;28.68
7178;BME280;3630;42.146;24.756;2022-07-18T07:32:18;100069.53;;;26.50;28.28
7178;BME280;3630;42.146;24.756;2022-07-18T07:34:44;100072.88;;;26.54;27.99
7178;BME280;3630;42.146;24.756;2022-07-18T07:37:11;100078.78;;;26.60;27.53
7178;BME280;3630;42.146;24.756;2022-07-18T07:39:39;100075.25;;;26.61;27.22
7178;BME280;3630;42.146;24.756;2022-07-18T07:42:06;100074.72;;;26.73;27.69
7178;BME280;3630;42.146;24.756;2022-07-18T07:44:33;100073.06;;;26.71;25.75
7178;BME280;3630;42.146;24.756;2022-07-18T07:47:00;100075.72;;;26.71;25.45
7178;BME280;3630;42.146;24.756;2022-07-18T07:49:27;100066.50;;;26.59;26.01
7178;BME280;3630;42.146;24.756;2022-07-18T07:51:54;100068.59;;;26.51;26.09
7178;BME280;3630;42.146;24.756;2022-07-18T07:54:21;100071.75;;;26.61;27.42
7178;BME280;3630;42.146;24.756;2022-07-18T07:56:49;100076.47;;;26.74;26.16
7178;BME280;3630;42.146;24.756;2022-07-18T07:59:16;100078.94;;;26.79;26.09
7178;BME280;3630;42.146;24.756;2022-07-18T08:01:43;100075.47;;;26.99;25.95
7178;BME280;3630;42.146;24.756;2022-07-18T08:04:10;100074.25;;;27.07;25.70
7178;BME280;3630;42.146;24.756;2022-07-18T08:06:36;100075.97;;;27.08;26.42
7178;BME280;3630;42.146;24.756;2022-07-18T08:09:03;100078.53;;;27.10;25.92
7178;BME280;3630;42.146;24.756;2022-07-18T08:11:32;100071.22;;;27.16;26.07
7178;BME280;3630;42.146;24.756;2022-07-18T08:14:00;100083.16;;;27.05;25.01
7178;BME280;3630;42.146;24.756;2022-07-18T08:16:27;100080.97;;;27.14;24.67
7178;BME280;3630;42.146;24.756;2022-07-18T08:18:54;100073.84;;;27.36;24.25
7178;BME280;3630;42.146;24.756;2022-07-18T08:21:20;100072.03;;;27.38;23.81
7178;BME280;3630;42.146;24.756;2022-07-18T08:23:47;100072.63;;;27.45;23.04
7178;BME280;3630;42.146;24.756;2022-07-18T08:26:14;100065.81;;;27.39;23.22
7178;BME280;3630;42.146;24.756;2022-07-18T08:28:41;100075.50;;;27.39;23.77
7178;BME280;3630;42.146;24.756;2022-07-18T08:31:09;100073.84;;;27.36;24.35
7178;BME280;3630;42.146;24.756;2022-07-18T08:33:36;100070.78;;;27.47;24.36
7178;BME280;3630;42.146;24.756;2022-07-18T08:36:04;100066.63;;;27.41;24.03
7178;BME280;3630;42.146;24.756;2022-07-18T08:38:31;100076.31;;;27.21;23.92
7178;BME280;3630;42.146;24.756;2022-07-18T08:40:58;100079.06;;;27.18;24.18
7178;BME280;3630;42.146;24.756;2022-07-18T08:43:25;100075.84;;;27.31;24.29
7178;BME280;3630;42.146;24.756;2022-07-18T08:45:55;100074.09;;;27.52;24.67
7178;BME280;3630;42.146;24.756;2022-07-18T08:48:24;100080.84;;;27.78;25.24
7178;BME280;3630;42.146;24.756;2022-07-18T08:50:51;100075.94;;;27.89;23.56
7178;BME280;3630;42.146;24.756;2022-07-18T08:53:18;100082.47;;;28.00;24.37
7178;BME280;3630;42.146;24.756;2022-07-18T08:55:47;100078.59;;;28.09;24.44
7178;BME280;3630;42.146;24.756;2022-07-18T08:58:14;100081.31;;;28.26;24.54
7178;BME280;3630;42.146;24.756;2022-07-18T09:00:43;100080.56;;;28.41;24.49
7178;BME280;3630;42.146;24.756;2022-07-18T09:03:10;100044.22;;;28.09;24.00
7178;BME280;3630;42.146;24.756;2022-07-18T09:05:39;100055.53;;;27.92;24.87
7178;BME280;3630;42.146;24.756;2022-07-18T09:08:08;100068.59;;;27.77;24.79
7178;BME280;3630;42.146;24.756;2022-07-18T09:10:41;100069.38;;;27.79;24.72
7178;BME280;3630;42.146;24.756;2022-07-18T09:13:08;100072.53;;;27.87;25.49
7178;BME280;3630;42.146;24.756;2022-07-18T09:15:35;100062.78;;;28.07;25.83
7178;BME280;3630;42.146;24.756;2022-07-18T09:18:26;100075.06;;;28.27;25.93
7178;BME280;3630;42.146;24.756;2022-07-18T09:20:59;100068.84;;;28.47;26.17
7178;BME280;3630;42.146;24.756;2022-07-18T09:23:28;100072.75;;;28.57;24.21
7178;BME280;3630;42.146;24.756;2022-07-18T09:25:56;100072.56;;;28.61;24.20
7178;BME280;3630;42.146;24.756;2022-07-18T09:28:22;100074.75;;;28.71;24.27
7178;BME280;3630;42.146;24.756;2022-07-18T09:30:49;100074.41;;;28.95;23.91
7178;BME280;3630;42.146;24.756;2022-07-18T09:33:16;100070.16;;;29.10;24.01
7178;BME280;3630;42.146;24.756;2022-07-18T09:35:47;100071.72;;;29.31;24.27
7178;BME280;3630;42.146;24.756;2022-07-18T09:38:17;100062.78;;;29.16;23.98
7178;BME280;3630;42.146;24.756;2022-07-18T09:40:45;100067.81;;;29.21;23.45
7178;BME280;3630;42.146;24.756;2022-07-18T09:43:14;100072.19;;;29.05;23.81
7178;BME280;3630;42.146;24.756;2022-07-18T09:45:43;100068.47;;;29.09;23.93
7178;BME280;3630;42.146;24.756;2022-07-18T09:48:13;100066.72;;;28.91;23.24
7178;BME280;3630;42.146;24.756;2022-07-18T09:50:42;100056.09;;;28.74;23.89
7178;BME280;3630;42.146;24.756;2022-07-18T09:53:11;100059.31;;;28.80;24.08
7178;BME280;3630;42.146;24.756;2022-07-18T09:55:48;100061.97;;;28.80;24.01
7178;BME280;3630;42.146;24.756;2022-07-18T09:58:18;100057.00;;;28.91;24.43
7178;BME280;3630;42.146;24.756;2022-07-18T10:00:46;100055.75;;;29.15;24.01
7178;BME280;3630;42.146;24.756;2022-07-18T10:03:14;100056.19;;;29.25;23.77
7178;BME280;3630;42.146;24.756;2022-07-18T10:05:42;100055.22;;;29.43;24.03
7178;BME280;3630;42.146;24.756;2022-07-18T10:08:11;100054.50;;;29.57;23.81
7178;BME280;3630;42.146;24.756;2022-07-18T10:10:40;100052.72;;;29.40;24.12
7178;BME280;3630;42.146;24.756;2022-07-18T10:13:08;100041.28;;;29.40;23.76
7178;BME280;3630;42.146;24.756;2022-07-18T10:15:37;100037.75;;;29.56;24.11
7178;BME280;3630;42.146;24.756;2022-07-18T10:18:05;100033.19;;;29.75;23.50
7178;BME280;3630;42.146;24.756;2022-07-18T10:20:35;100036.75;;;29.92;23.74
7178;BME280;3630;42.146;24.756;2022-07-18T10:23:08;100029.84;;;30.05;23.44
7178;BME280;3630;42.146;24.756;2022-07-18T10:25:36;100006.31;;;29.99;23.58
7178;BME280;3630;42.146;24.756;2022-07-18T10:28:05;100024.44;;;29.91;23.30
7178;BME280;3630;42.146;24.756;2022-07-18T10:30:40;100027.69;;;29.96;23.74
7178;BME280;3630;42.146;24.756;2022-07-18T10:33:36;100019.59;;;29.99;23.68
7178;BME280;3630;42.146;24.756;2022-07-18T10:36:05;100021.28;;;30.00;25.06
7178;BME280;3630;42.146;24.756;2022-07-18T10:38:33;100017.53;;;30.04;24.60
7178;BME280;3630;42.146;24.756;2022-07-18T10:41:08;100024.88;;;30.14;24.77
7178;BME280;3630;42.146;24.756;2022-07-18T10:43:43;100001.03;;;30.14;24.96
7178;BME280;3630;42.146;24.756;2022-07-18T10:46:12;100018.44;;;30.03;24.50
7178;BME280;3630;42.146;24.756;2022-07-18T10:51:30;100003.31;;;30.36;26.18
7178;BME280;3630;42.146;24.756;2022-07-18T10:54:11;100009.81;;;30.62;26.07
7178;BME280;3630;42.146;24.756;2022-07-18T10:57:09;99999.72;;;30.68;25.70
7178;BME280;3630;42.146;24.756;2022-07-18T10:59:58;99997.38;;;30.78;25.32
7178;BME280;3630;42.146;24.756;2022-07-18T11:02:36;99996.03;;;30.55;26.05
7178;BME280;3630;42.146;24.756;2022-07-18T11:05:33;100002.78;;;30.76;26.03
7178;BME280;3630;42.146;24.756;2022-07-18T11:08:20;99990.50;;;30.89;26.13
7178;BME280;3630;42.146;24.756;2022-07-18T11:11:11;99994.63;;;30.95;24.53
7178;BME280;3630;42.146;24.756;2022-07-18T11:13:45;99991.44;;;30.88;24.92
7178;BME280;3630;42.146;24.756;2022-07-18T11:16:22;99991.84;;;30.96;24.50
7178;BME280;3630;42.146;24.756;2022-07-18T11:19:18;99982.50;;;31.05;23.97
7178;BME280;3630;42.146;24.756;2022-07-18T11:21:45;99983.00;;;31.12;24.74
7178;BME280;3630;42.146;24.756;2022-07-18T11:24:13;99978.31;;;31.15;24.50
7178;BME280;3630;42.146;24.756;2022-07-18T11:26:44;99977.31;;;31.18;23.67
7178;BME280;3630;42.146;24.756;2022-07-18T11:29:13;99982.41;;;31.21;23.79
7178;BME280;3630;42.146;24.756;2022-07-18T11:31:45;99991.72;;;31.14;23.92
7178;BME280;3630;42.146;24.756;2022-07-18T11:34:13;99978.63;;;31.11;24.87
7178;BME280;3630;42.146;24.756;2022-07-18T11:36:44;99975.97;;;31.11;24.66
7178;BME280;3630;42.146;24.756;2022-07-18T11:39:12;99974.34;;;31.08;24.86
7178;BME280;3630;42.146;24.756;2022-07-18T11:41:40;99976.16;;;31.08;24.25
7178;BME280;3630;42.146;24.756;2022-07-18T11:44:15;99975.38;;;31.06;25.25
7178;BME280;3630;42.146;24.756;2022-07-18T11:46:43;99966.78;;;30.86;24.68
7178;BME280;3630;42.146;24.756;2022-07-18T11:49:11;99962.75;;;30.65;25.36
7178;BME280;3630;42.146;24.756;2022-07-18T11:51:39;99956.47;;;30.66;25.45
7178;BME280;3630;42.146;24.756;2022-07-18T11:54:08;99944.94;;;30.67;25.74
7178;BME280;3630;42.146;24.756;2022-07-18T11:56:45;99944.84;;;30.69;25.94
7178;BME280;3630;42.146;24.756;2022-07-18T11:59:13;99949.09;;;30.71;25.52
7178;BME280;3630;42.146;24.756;2022-07-18T12:01:40;99942.59;;;30.91;25.80
7178;BME280;3630;42.146;24.756;2022-07-18T12:04:16;99942.09;;;31.00;24.98
7178;BME280;3630;42.146;24.756;2022-07-18T12:06:43;99941.25;;;31.14;24.91
7178;BME280;3630;42.146;24.756;2022-07-18T12:09:11;99935.94;;;31.14;25.16
7178;BME280;3630;42.146;24.756;2022-07-18T12:11:38;99934.22;;;31.13;25.08
7178;BME280;3630;42.146;24.756;2022-07-18T12:14:13;99940.59;;;31.24;23.81
7178;BME280;3630;42.146;24.756;2022-07-18T12:16:42;99941.72;;;31.34;23.41
7178;BME280;3630;42.146;24.756;2022-07-18T12:19:10;99931.97;;;30.77;24.16
7178;BME280;3630;42.146;24.756;2022-07-18T12:21:42;99934.03;;;30.72;24.60
7178;BME280;3630;42.146;24.756;2022-07-18T12:24:25;99928.66;;;31.03;23.62
7178;BME280;3630;42.146;24.756;2022-07-18T12:27:12;99929.59;;;31.30;23.69
7178;BME280;3630;42.146;24.756;2022-07-18T12:30:10;99927.44;;;31.51;23.87
7178;BME280;3630;42.146;24.756;2022-07-18T12:32:44;99897.44;;;31.63;24.90
7178;BME280;3630;42.146;24.756;2022-07-18T12:35:13;99919.59;;;32.04;24.33
7178;BME280;3630;42.146;24.756;2022-07-18T12:37:50;99925.66;;;32.06;23.82
7178;BME280;3630;42.146;24.756;2022-07-18T12:40:19;99910.28;;;31.97;24.13
7178;BME280;3630;42.146;24.756;2022-07-18T12:42:46;99915.53;;;31.71;24.64
7178;BME280;3630;42.146;24.756;2022-07-18T12:45:14;99906.75;;;31.56;24.61
7178;BME280;3630;42.146;24.756;2022-07-18T12:47:41;99890.03;;;31.68;25.33
7178;BME280;3630;42.146;24.756;2022-07-18T12:50:08;99903.13;;;31.71;25.98
7178;BME280;3630;42.146;24.756;2022-07-18T12:52:35;99904.16;;;31.26;26.14
7178;BME280;3630;42.146;24.756;2022-07-18T12:55:02;99902.28;;;31.14;26.73
7178;BME280;3630;42.146;24.756;2022-07-18T12:57:30;99905.03;;;30.99;26.48
7178;BME280;3630;42.146;24.756;2022-07-18T12:59:57;99900.38;;;31.30;26.65
7178;BME280;3630;42.146;24.756;2022-07-18T13:02:24;99892.16;;;31.49;26.44
7178;BME280;3630;42.146;24.756;2022-07-18T13:04:52;99901.44;;;31.42;26.28
7178;BME280;3630;42.146;24.756;2022-07-18T13:07:19;99903.81;;;31.46;25.93
7178;BME280;3630;42.146;24.756;2022-07-18T13:09:46;99903.69;;;31.62;26.03
7178;BME280;3630;42.146;24.756;2022-07-18T13:12:12;99889.00;;;31.28;26.20
7178;BME280;3630;42.146;24.756;2022-07-18T13:14:41;99884.72;;;31.40;26.10
7178;BME280;3630;42.146;24.756;2022-07-18T13:17:07;99886.44;;;31.55;26.16